createdAt,value
2022-11-13T00:01:23.935Z,102800.00
2022-11-13T00:03:53.276Z,102802.53
2022-11-13T00:06:23.911Z,102806.75
2022-11-13T00:08:56.156Z,102802.38
2022-11-13T00:11:24.225Z,102799.69
2022-11-13T00:13:51.701Z,102788.38
2022-11-13T00:16:21.879Z,102781.38
2022-11-13T00:18:49.540Z,102784.72
2022-11-13T00:21:27.161Z,102785.47
2022-11-13T00:23:56.910Z,102781.03
2022-11-13T00:26:27.665Z,102770.69
2022-11-13T00:29:02.104Z,102773.63
2022-11-13T00:31:30.724Z,102770.22
2022-11-13T00:34:19.436Z,102769.47
2022-11-13T00:36:47.120Z,102768.53
2022-11-13T00:39:14.587Z,102755.47
2022-11-13T00:41:42.065Z,102757.66
2022-11-13T00:44:09.632Z,102744.69
2022-11-13T00:46:37.054Z,102749.09
2022-11-13T00:49:04.914Z,102742.03
2022-11-13T00:51:33.011Z,102742.03
2022-11-13T00:54:00.479Z,102742.97
2022-11-13T00:56:28.206Z,102743.78
2022-11-13T00:58:55.742Z,102747.06
2022-11-13T01:01:23.234Z,102736.56
2022-11-13T01:03:50.808Z,102741.75
2022-11-13T01:06:23.579Z,102745.28
2022-11-13T01:08:51.545Z,102721.91
2022-11-13T01:11:22.325Z,102712.38
2022-11-13T01:13:51.201Z,102721.22
2022-11-13T01:16:21.986Z,102723.72
2022-11-13T01:18:49.547Z,102729.66
2022-11-13T01:21:22.691Z,102721.75
2022-11-13T01:23:50.348Z,102716.59
2022-11-13T01:26:24.626Z,102716.72
2022-11-13T01:28:52.299Z,102708.69
2022-11-13T01:31:22.945Z,102710.63
2022-11-13T01:33:50.748Z,102718.16
2022-11-13T01:36:21.180Z,102712.25
2022-11-13T01:38:49.244Z,102714.00
2022-11-13T01:41:23.614Z,102699.41
2022-11-13T01:43:52.664Z,102703.00
2022-11-13T01:46:29.553Z,102698.66
2022-11-13T01:49:16.847Z,102701.97
2022-11-13T01:51:48.021Z,102691.31
2022-11-13T01:54:20.072Z,102694.72
2022-11-13T01:56:48.765Z,102685.88
2022-11-13T01:59:23.075Z,102684.13
2022-11-13T02:01:50.769Z,102686.56
2022-11-13T02:04:18.315Z,102680.59
2022-11-13T02:06:50.004Z,102679.91
2022-11-13T02:09:21.214Z,102671.91
2022-11-13T02:11:49.328Z,102677.25
2022-11-13T02:14:17.881Z,102670.53
2022-11-13T02:16:48.106Z,102668.75
2022-11-13T02:19:26.612Z,102655.03
2022-11-13T02:22:03.533Z,102644.94
2022-11-13T02:24:35.861Z,102649.19
2022-11-13T02:27:11.938Z,102649.41
2022-11-13T02:29:39.412Z,102653.91
2022-11-13T02:32:06.904Z,102641.81
2022-11-13T02:34:34.370Z,102641.44
2022-11-13T02:37:01.845Z,102643.69
2022-11-13T02:39:29.340Z,102640.06
2022-11-13T02:41:56.792Z,102644.94
2022-11-13T02:44:24.224Z,102645.97
2022-11-13T02:46:51.690Z,102638.91
2022-11-13T02:49:19.175Z,102639.53
2022-11-13T02:51:46.683Z,102645.31
2022-11-13T02:54:16.928Z,102631.00
2022-11-13T02:56:44.877Z,102637.22
2022-11-13T02:59:12.304Z,102641.25
2022-11-13T03:01:39.840Z,102640.25
2022-11-13T03:04:07.344Z,102639.28
2022-11-13T03:06:34.789Z,102633.31
2022-11-13T03:09:02.212Z,102626.38
2022-11-13T03:11:29.660Z,102620.59
2022-11-13T03:13:57.110Z,102622.41
2022-11-13T03:16:24.567Z,102621.63
2022-11-13T03:18:52.010Z,102617.47
2022-11-13T03:21:19.445Z,102624.31
2022-11-13T03:23:46.909Z,102618.28
2022-11-13T03:26:17.240Z,102617.41
2022-11-13T03:28:44.816Z,102607.88
2022-11-13T03:31:12.544Z,102614.81
2022-11-13T03:33:40.293Z,102610.53
2022-11-13T03:36:08.137Z,102604.47
2022-11-13T03:38:36.078Z,102617.31
2022-11-13T03:41:03.645Z,102597.41
2022-11-13T03:43:31.219Z,102607.75
2022-11-13T03:45:58.655Z,102599.06
2022-11-13T03:48:26.491Z,102601.84
2022-11-13T03:50:56.245Z,102597.97
2022-11-13T03:53:23.728Z,102603.06
2022-11-13T03:55:51.233Z,102602.81
2022-11-13T03:58:18.743Z,102610.56
2022-11-13T04:00:46.990Z,102612.84
2022-11-13T04:03:14.572Z,102609.41
2022-11-13T04:05:43.864Z,102605.94
2022-11-13T04:08:11.468Z,102599.88
2022-11-13T04:10:38.939Z,102599.88
2022-11-13T04:13:06.397Z,102608.66
2022-11-13T04:15:33.942Z,102610.50
2022-11-13T04:18:01.392Z,102607.09
2022-11-13T04:20:30.029Z,102593.34
2022-11-13T04:22:58.584Z,102601.31
2022-11-13T04:25:27.151Z,102602.19
2022-11-13T04:27:55.735Z,102600.41
2022-11-13T04:30:23.303Z,102599.63
2022-11-13T04:32:50.786Z,102599.47
2022-11-13T04:35:18.356Z,102603.81
2022-11-13T04:37:45.788Z,102603.81
2022-11-13T04:40:13.341Z,102587.31
2022-11-13T04:42:48.901Z,102590.66
2022-11-13T04:45:18.038Z,102570.28
2022-11-13T04:47:46.101Z,102580.88
2022-11-13T04:50:14.774Z,102581.44
2022-11-13T04:52:43.058Z,102580.34
2022-11-13T04:55:12.118Z,102583.59
2022-11-13T04:57:42.277Z,102582.50
2022-11-13T05:00:11.322Z,102580.66
2022-11-13T05:02:41.781Z,102583.06
2022-11-13T05:05:09.924Z,102581.16
2022-11-13T05:07:38.018Z,102579.25
2022-11-13T05:10:06.153Z,102579.13
2022-11-13T05:12:33.652Z,102578.97
2022-11-13T05:15:01.122Z,102570.16
2022-11-13T05:17:28.578Z,102563.09
2022-11-13T05:19:56.000Z,102561.31
2022-11-13T05:22:23.462Z,102560.38
2022-11-13T05:24:50.899Z,102571.50
2022-11-13T05:27:18.339Z,102561.88
2022-11-13T05:29:46.149Z,102560.75
2022-11-13T05:32:13.800Z,102559.22
2022-11-13T05:34:41.219Z,102556.34
2022-11-13T05:37:08.699Z,102562.38
2022-11-13T05:39:36.161Z,102557.22
2022-11-13T05:42:03.696Z,102555.31
2022-11-13T05:44:31.148Z,102549.09
2022-11-13T05:46:58.629Z,102555.03
2022-11-13T05:49:26.115Z,102548.13
2022-11-13T05:51:55.680Z,102551.50
2022-11-13T05:54:23.150Z,102548.94
2022-11-13T05:56:50.686Z,102549.59
2022-11-13T05:59:18.175Z,102541.06
2022-11-13T06:01:45.686Z,102531.50
2022-11-13T06:04:13.237Z,102539.28
2022-11-13T06:06:40.817Z,102530.44
2022-11-13T06:09:08.311Z,102530.59
2022-11-13T06:11:35.768Z,102530.44
2022-11-13T06:14:03.270Z,102528.53
2022-11-13T06:16:35.605Z,102534.59
2022-11-13T06:19:04.042Z,102526.78
2022-11-13T06:21:34.379Z,102516.31
2022-11-13T06:24:02.981Z,102515.47
2022-11-13T06:26:33.268Z,102517.00
2022-11-13T06:29:01.927Z,102510.06
2022-11-13T06:31:31.362Z,102516.88
2022-11-13T06:34:00.045Z,102517.53
2022-11-13T06:36:30.952Z,102519.81
2022-11-13T06:38:59.160Z,102512.81
2022-11-13T06:41:31.195Z,102504.88
2022-11-13T06:44:03.043Z,102505.69
2022-11-13T06:46:31.565Z,102505.91
2022-11-13T06:48:59.505Z,102511.66
2022-11-13T06:51:30.285Z,102500.47
2022-11-13T06:53:59.090Z,102503.78
2022-11-13T06:56:27.062Z,102495.75
2022-11-13T06:58:57.933Z,102504.28
2022-11-13T07:01:26.662Z,102511.06
2022-11-13T07:03:54.914Z,102505.78
2022-11-13T07:06:24.280Z,102511.75
2022-11-13T07:08:52.016Z,102504.00
2022-11-13T07:11:22.277Z,102498.03
2022-11-13T07:13:50.319Z,102500.78
2022-11-13T07:16:18.715Z,102498.97
2022-11-13T07:18:53.754Z,102502.38
2022-11-13T07:21:22.386Z,102509.28
2022-11-13T07:23:50.830Z,102514.44
2022-11-13T07:26:18.589Z,102503.47
2022-11-13T07:28:46.580Z,102494.28
2022-11-13T07:31:15.647Z,102506.63
2022-11-13T07:33:43.448Z,102505.31
2022-11-13T07:36:11.675Z,102505.59
2022-11-13T07:38:39.112Z,102504.09
2022-11-13T07:41:06.782Z,102497.50
2022-11-13T07:43:34.943Z,102504.75
2022-11-13T07:46:16.502Z,102499.66
2022-11-13T07:48:44.040Z,102508.63
2022-11-13T07:51:11.564Z,102502.78
2022-11-13T07:53:39.171Z,102498.75
2022-11-13T07:56:07.160Z,102495.34
2022-11-13T07:58:34.903Z,102498.16
2022-11-13T08:01:05.131Z,102488.84
2022-11-13T08:03:33.075Z,102494.31
2022-11-13T08:06:06.244Z,102485.84
2022-11-13T08:08:34.656Z,102494.81
2022-11-13T08:11:09.369Z,102494.25
2022-11-13T08:13:38.002Z,102487.72
2022-11-13T08:16:06.176Z,102491.50
2022-11-13T08:18:34.132Z,102494.22
2022-11-13T08:21:03.579Z,102485.81
2022-11-13T08:23:32.242Z,102481.16
2022-11-13T08:26:00.206Z,102480.53
2022-11-13T08:28:28.520Z,102486.97
2022-11-13T08:30:56.258Z,102484.50
2022-11-13T08:33:24.041Z,102476.91
2022-11-13T08:35:58.797Z,102479.00
2022-11-13T08:38:26.939Z,102479.13
2022-11-13T08:40:58.606Z,102483.81
2022-11-13T08:43:27.753Z,102480.66
2022-11-13T08:45:55.891Z,102480.88
2022-11-13T08:48:25.151Z,102482.00
2022-11-13T08:50:54.969Z,102475.31
2022-11-13T08:53:23.557Z,102478.06
2022-11-13T08:55:51.075Z,102475.66
2022-11-13T08:58:19.116Z,102472.88
2022-11-13T09:00:46.839Z,102471.69
2022-11-13T09:03:14.383Z,102461.69
2022-11-13T09:05:41.868Z,102454.19
2022-11-13T09:08:11.712Z,102433.28
2022-11-13T09:10:39.220Z,102454.31
2022-11-13T09:13:08.768Z,102450.41
2022-11-13T09:15:39.405Z,102454.38
2022-11-13T09:18:07.481Z,102456.63
2022-11-13T09:20:35.036Z,102447.84
2022-11-13T09:23:05.111Z,102447.06
2022-11-13T09:25:37.582Z,102441.53
2022-11-13T09:28:06.594Z,102435.50
2022-11-13T09:30:34.698Z,102432.06
2022-11-13T09:33:02.994Z,102425.72
2022-11-13T09:35:37.516Z,102423.47
2022-11-13T09:38:11.899Z,102424.28
2022-11-13T09:40:58.517Z,102416.25
2022-11-13T09:43:48.174Z,102422.47
2022-11-13T09:46:36.794Z,102416.38
2022-11-13T09:49:17.719Z,102407.84
2022-11-13T09:51:56.476Z,102403.34
2022-11-13T09:54:24.557Z,102401.88
2022-11-13T09:56:55.506Z,102400.31
2022-11-13T09:59:39.728Z,102384.97
2022-11-13T10:02:21.816Z,102382.59
2022-11-13T10:04:54.287Z,102385.03
2022-11-13T10:07:32.077Z,102385.38
2022-11-13T10:10:25.566Z,102356.03
2022-11-13T10:12:57.772Z,102379.88
2022-11-13T10:15:26.305Z,102371.16
2022-11-13T10:18:02.296Z,102364.88
2022-11-13T10:20:38.181Z,102368.59
2022-11-13T10:23:25.088Z,102364.19
2022-11-13T10:25:54.357Z,102362.53
2022-11-13T10:31:15.019Z,102350.41
2022-11-13T10:33:42.675Z,102360.81
2022-11-13T10:36:45.711Z,102358.31
2022-11-13T10:39:13.178Z,102346.94
2022-11-13T10:41:48.322Z,102349.63
2022-11-13T10:44:23.995Z,102334.88
2022-11-13T10:46:51.564Z,102334.00
2022-11-13T10:49:28.855Z,102327.13
2022-11-13T10:51:58.439Z,102328.94
2022-11-13T10:54:34.109Z,102324.59
2022-11-13T10:57:05.265Z,102314.94
2022-11-13T10:59:41.686Z,102318.53
2022-11-13T11:02:25.250Z,102294.16
2022-11-13T11:05:07.761Z,102303.78
2022-11-13T11:07:41.606Z,102289.81
2022-11-13T11:10:34.813Z,102285.44
2022-11-13T11:13:21.881Z,102280.22
2022-11-13T11:15:53.678Z,102277.59
2022-11-13T11:18:35.292Z,102282.81
2022-11-13T11:21:08.842Z,102278.47
2022-11-13T11:24:01.088Z,102282.81
2022-11-13T11:26:36.511Z,102273.22
2022-11-13T11:29:19.864Z,102261.78
2022-11-13T11:31:55.906Z,102254.69
2022-11-13T11:34:31.190Z,102254.69
2022-11-13T11:37:13.777Z,102253.78
2022-11-13T11:39:52.782Z,102250.34
2022-11-13T11:42:35.390Z,102247.66
2022-11-13T11:45:25.146Z,102238.84
2022-11-13T11:47:54.372Z,102239.66
2022-11-13T11:50:46.253Z,102238.59
2022-11-13T11:53:19.804Z,102234.38
2022-11-13T11:56:01.331Z,102227.16
2022-11-13T11:58:59.856Z,102226.19
2022-11-13T12:01:33.489Z,102221.66
2022-11-13T12:04:18.369Z,102219.69
2022-11-13T12:07:06.428Z,102211.59
2022-11-13T12:09:44.707Z,102217.53
2022-11-13T12:13:06.613Z,102213.56
2022-11-13T12:15:48.909Z,102196.88
2022-11-13T12:18:25.286Z,102203.13
2022-11-13T12:21:23.232Z,102192.63
2022-11-13T12:24:36.431Z,102183.28
2022-11-13T12:27:09.960Z,102186.97
2022-11-13T12:29:49.320Z,102173.97
2022-11-13T12:32:33.645Z,102166.06
2022-11-13T12:35:08.634Z,102151.34
2022-11-13T12:37:52.462Z,102158.38
2022-11-13T12:40:43.989Z,102148.81
2022-11-13T12:43:30.985Z,102154.78
2022-11-13T12:46:09.305Z,102139.97
2022-11-13T12:48:40.585Z,102146.97
2022-11-13T12:51:10.941Z,102142.47
2022-11-13T12:53:53.739Z,102148.50
2022-11-13T12:56:27.693Z,102146.69
2022-11-13T12:59:31.566Z,102137.22
2022-11-13T13:02:17.719Z,102143.25
2022-11-13T13:05:24.185Z,102127.44
2022-11-13T13:08:31.798Z,102130.06
2022-11-13T13:11:08.588Z,102119.53
2022-11-13T13:13:53.044Z,102113.44
2022-11-13T13:16:27.405Z,102122.25
2022-11-13T13:19:06.264Z,102105.16
2022-11-13T13:21:45.882Z,102103.50
2022-11-13T13:24:30.963Z,102097.72
2022-11-13T13:26:58.638Z,102096.41
2022-11-13T13:29:27.258Z,102096.22
2022-11-13T13:32:21.537Z,102090.97
2022-11-13T13:35:11.122Z,102096.41
2022-11-13T13:37:43.290Z,102083.19
2022-11-13T13:40:45.585Z,102076.88
2022-11-13T13:43:41.473Z,102070.03
2022-11-13T13:46:17.816Z,102069.59
2022-11-13T13:48:47.579Z,102069.25
2022-11-13T13:51:25.779Z,102068.03
2022-11-13T13:53:54.189Z,102063.09
2022-11-13T13:56:24.006Z,102063.75
2022-11-13T13:58:52.878Z,102062.41
2022-11-13T14:01:35.584Z,102056.63
2022-11-13T14:04:07.332Z,102050.56
2022-11-13T14:06:34.829Z,102049.03
2022-11-13T14:09:19.364Z,102038.66
2022-11-13T14:11:47.692Z,102042.28
2022-11-13T14:14:23.380Z,102035.41
2022-11-13T14:16:52.907Z,102029.31
2022-11-13T14:19:21.039Z,102023.22
2022-11-13T14:21:52.801Z,102029.41
2022-11-13T14:24:37.090Z,102030.28
2022-11-13T14:27:08.386Z,102030.38
2022-11-13T14:29:46.896Z,102019.91
2022-11-13T14:32:22.152Z,102026.91
2022-11-13T14:34:52.736Z,102032.19
2022-11-13T14:37:28.431Z,102034.88
2022-11-13T14:39:59.346Z,102025.31
2022-11-13T14:42:36.544Z,102024.41
2022-11-13T14:45:18.205Z,102021.84
2022-11-13T14:48:00.764Z,102017.50
2022-11-13T14:50:33.885Z,102018.34
2022-11-13T14:53:04.627Z,102020.13
2022-11-13T14:55:34.942Z,102011.41
2022-11-13T14:58:02.427Z,102014.06
2022-11-13T15:00:36.514Z,102017.59
2022-11-13T15:03:07.019Z,102009.78
2022-11-13T15:05:34.597Z,102003.66
2022-11-13T15:08:02.408Z,102003.69
2022-11-13T15:10:30.569Z,102004.59
2022-11-13T15:12:58.000Z,102002.88
2022-11-13T15:15:31.193Z,101997.63
2022-11-13T15:17:58.836Z,102001.09
2022-11-13T15:20:28.797Z,101991.50
2022-11-13T15:22:58.048Z,102003.69
2022-11-13T15:25:26.228Z,101994.97
2022-11-13T15:27:53.759Z,101987.13
2022-11-13T15:30:21.358Z,101987.97
2022-11-13T15:32:53.799Z,101991.41
2022-11-13T15:35:22.099Z,101994.84
2022-11-13T15:37:49.900Z,101993.03
2022-11-13T15:40:18.295Z,101990.25
2022-11-13T15:42:46.511Z,101990.19
2022-11-13T15:45:16.380Z,101986.63
2022-11-13T15:47:44.369Z,101987.38
2022-11-13T15:50:14.320Z,101979.47
2022-11-13T15:52:46.472Z,101988.13
2022-11-13T15:55:43.678Z,101982.78
2022-11-13T15:58:17.476Z,101987.91
2022-11-13T16:00:46.070Z,101977.38
2022-11-13T16:03:14.073Z,101978.16
2022-11-13T16:05:41.745Z,101971.91
2022-11-13T16:08:13.454Z,101978.69
2022-11-13T16:10:41.088Z,101981.91
2022-11-13T16:13:08.717Z,101980.84
2022-11-13T16:15:36.817Z,101976.38
2022-11-13T16:18:04.544Z,101975.31
2022-11-13T16:20:32.194Z,101980.34
2022-11-13T16:22:59.808Z,101973.22
2022-11-13T16:25:27.637Z,101967.88
2022-11-13T16:27:55.321Z,101965.13
2022-11-13T16:30:25.362Z,101965.81
2022-11-13T16:32:53.039Z,101964.94
2022-11-13T16:35:21.493Z,101961.34
2022-11-13T16:37:49.149Z,101959.50
2022-11-13T16:40:26.290Z,101961.94
2022-11-13T16:42:55.114Z,101956.63
2022-11-13T16:45:22.997Z,101966.16
2022-11-13T16:47:51.451Z,101959.16
2022-11-13T16:50:25.453Z,101958.13
2022-11-13T16:52:52.915Z,101960.59
2022-11-13T16:55:20.662Z,101945.88
2022-11-13T16:57:48.125Z,101942.28
2022-11-13T17:00:17.854Z,101943.16
2022-11-13T17:02:45.900Z,101926.44
2022-11-13T17:05:18.076Z,101937.81
2022-11-13T17:07:46.156Z,101938.13
2022-11-13T17:10:30.831Z,101945.81
2022-11-13T17:12:59.242Z,101934.50
2022-11-13T17:15:27.006Z,101934.38
2022-11-13T17:17:57.807Z,101924.72
2022-11-13T17:20:25.332Z,101920.25
2022-11-13T17:22:52.829Z,101926.13
2022-11-13T17:25:20.587Z,101914.75
2022-11-13T17:27:48.176Z,101904.09
2022-11-13T17:30:16.065Z,101907.41
2022-11-13T17:32:43.996Z,101910.69
2022-11-13T17:35:13.040Z,101921.81
2022-11-13T17:37:40.620Z,101915.63
2022-11-13T17:40:09.043Z,101905.13
2022-11-13T17:42:36.558Z,101906.75
2022-11-13T17:45:04.141Z,101915.22
2022-11-13T17:47:31.645Z,101907.41
2022-11-13T17:50:03.919Z,101914.25
2022-11-13T17:52:34.508Z,101906.31
2022-11-13T17:55:05.859Z,101920.22
2022-11-13T17:57:33.689Z,101927.16
2022-11-13T18:00:01.163Z,101928.91
2022-11-13T18:02:28.815Z,101927.09
2022-11-13T18:04:59.160Z,101916.59
2022-11-13T18:07:27.290Z,101927.09
2022-11-13T18:09:54.841Z,101925.41
2022-11-13T18:12:22.319Z,101928.03
2022-11-13T18:14:53.342Z,101926.28
2022-11-13T18:17:22.088Z,101919.34
2022-11-13T18:19:50.488Z,101922.19
2022-11-13T18:22:18.389Z,101923.78
2022-11-13T18:24:45.974Z,101916.84
2022-11-13T18:27:13.606Z,101914.53
2022-11-13T18:29:41.603Z,101913.75
2022-11-13T18:32:09.128Z,101913.75
2022-11-13T18:34:40.240Z,101908.44
2022-11-13T18:37:07.680Z,101910.94
2022-11-13T18:39:35.161Z,101908.38
2022-11-13T18:42:02.606Z,101908.38
2022-11-13T18:44:30.255Z,101893.34
2022-11-13T18:46:57.758Z,101889.03
2022-11-13T18:49:25.472Z,101893.34
2022-11-13T18:51:52.922Z,101879.50
2022-11-13T18:54:20.650Z,101879.41
2022-11-13T18:56:48.080Z,101878.50
2022-11-13T18:59:15.678Z,101873.50
2022-11-13T19:01:43.258Z,101885.59
2022-11-13T19:04:27.441Z,101880.31
2022-11-13T19:06:55.164Z,101882.06
2022-11-13T19:09:22.650Z,101888.88
2022-11-13T19:11:51.260Z,101892.41
2022-11-13T19:14:19.478Z,101882.97
2022-11-13T19:16:47.284Z,101876.84
2022-11-13T19:19:18.163Z,101870.03
2022-11-13T19:21:46.654Z,101881.53
2022-11-13T19:24:15.008Z,101872.13
2022-11-13T19:26:44.051Z,101863.53
2022-11-13T19:29:11.744Z,101857.50
2022-11-13T19:31:39.385Z,101862.63
2022-11-13T19:34:08.621Z,101838.25
2022-11-13T19:36:37.497Z,101852.25
2022-11-13T19:39:05.546Z,101857.44
2022-11-13T19:41:33.244Z,101852.50
2022-11-13T19:44:00.845Z,101842.06
2022-11-13T19:46:31.836Z,101845.97
2022-11-13T19:48:59.376Z,101842.16
2022-11-13T19:51:27.677Z,101844.63
2022-11-13T19:53:57.163Z,101849.63
2022-11-13T19:56:25.709Z,101844.13
2022-11-13T19:58:53.856Z,101840.31
2022-11-13T20:01:26.732Z,101835.69
2022-11-13T20:04:05.008Z,101834.53
2022-11-13T20:06:33.628Z,101836.06
2022-11-13T20:09:02.208Z,101834.81
2022-11-13T20:11:30.091Z,101820.63
2022-11-13T20:13:58.233Z,101823.78
2022-11-13T20:16:25.878Z,101818.28
2022-11-13T20:18:57.820Z,101830.97
2022-11-13T20:21:27.049Z,101829.06
2022-11-13T20:23:57.980Z,101823.53
2022-11-13T20:26:25.673Z,101817.25
2022-11-13T20:28:53.197Z,101820.56
2022-11-13T20:31:23.271Z,101825.59
2022-11-13T20:33:52.492Z,101818.59
2022-11-13T20:36:20.138Z,101816.66
2022-11-13T20:38:58.194Z,101813.09
2022-11-13T20:41:25.976Z,101813.75
2022-11-13T20:43:55.725Z,101814.50
2022-11-13T20:46:23.368Z,101797.06
2022-11-13T20:48:51.375Z,101799.63
2022-11-13T20:51:24.367Z,101796.91
2022-11-13T20:53:52.404Z,101793.28
2022-11-13T20:56:21.982Z,101789.72
2022-11-13T20:58:49.761Z,101784.44
2022-11-13T21:01:24.765Z,101792.94
2022-11-13T21:03:53.243Z,101787.63
2022-11-13T21:06:22.752Z,101780.63
2022-11-13T21:08:50.555Z,101771.69
2022-11-13T21:11:22.796Z,101775.13
2022-11-13T21:13:51.200Z,101778.59
2022-11-13T21:16:18.684Z,101778.69
2022-11-13T21:18:47.485Z,101787.28
2022-11-13T21:21:21.389Z,101775.81
2022-11-13T21:23:49.693Z,101774.75
2022-11-13T21:26:17.909Z,101764.03
2022-11-13T21:28:46.307Z,101769.31
2022-11-13T21:31:16.921Z,101762.41
2022-11-13T21:33:45.767Z,101763.19
2022-11-13T21:36:21.955Z,101755.50
2022-11-13T21:38:57.105Z,101756.28
2022-11-13T21:41:25.995Z,101753.56
2022-11-13T21:44:02.066Z,101750.03
2022-11-13T21:46:38.417Z,101745.88
2022-11-13T21:49:12.957Z,101744.88
2022-11-13T21:51:42.696Z,101746.56
2022-11-13T21:54:10.846Z,101752.56
2022-11-13T21:56:39.680Z,101757.63
2022-11-13T21:59:07.368Z,101753.28
2022-11-13T22:01:38.665Z,101743.66
2022-11-13T22:04:07.014Z,101741.03
2022-11-13T22:06:36.618Z,101742.50
2022-11-13T22:09:15.550Z,101736.28
2022-11-13T22:11:43.122Z,101740.72
2022-11-13T22:14:10.673Z,101731.03
2022-11-13T22:16:40.422Z,101745.59
2022-11-13T22:19:19.398Z,101741.13
2022-11-13T22:21:48.775Z,101735.13
2022-11-13T22:24:16.497Z,101727.06
2022-11-13T22:26:46.871Z,101742.59
2022-11-13T22:29:14.587Z,101732.84
2022-11-13T22:31:42.037Z,101731.13
2022-11-13T22:34:09.516Z,101722.47
2022-11-13T22:36:38.369Z,101725.78
2022-11-13T22:39:06.234Z,101720.63
2022-11-13T22:41:36.257Z,101729.09
2022-11-13T22:44:08.919Z,101720.41
2022-11-13T22:46:37.097Z,101720.31
2022-11-13T22:49:06.147Z,101711.59
2022-11-13T22:51:38.928Z,101716.81
2022-11-13T22:54:09.514Z,101720.31
2022-11-13T22:56:38.503Z,101712.50
2022-11-13T22:59:08.113Z,101710.94
2022-11-13T23:01:38.153Z,101719.50
2022-11-13T23:04:10.596Z,101710.09
2022-11-13T23:06:37.967Z,101712.72
2022-11-13T23:09:06.951Z,101694.69
2022-11-13T23:11:38.445Z,101679.38
2022-11-13T23:14:08.800Z,101682.03
2022-11-13T23:16:36.561Z,101671.75
2022-11-13T23:19:05.625Z,101672.84
2022-11-13T23:21:33.409Z,101668.75
2022-11-13T23:24:01.014Z,101655.69
2022-11-13T23:26:29.050Z,101662.53
2022-11-13T23:28:57.587Z,101662.47
2022-11-13T23:31:25.641Z,101658.50
2022-11-13T23:33:53.116Z,101658.56
2022-11-13T23:36:20.585Z,101663.16
2022-11-13T23:38:48.346Z,101658.78
2022-11-13T23:41:15.872Z,101646.00
2022-11-13T23:46:30.766Z,101646.91
2022-11-13T23:48:58.352Z,101650.41
2022-11-13T23:51:25.780Z,101643.47
2022-11-13T23:53:53.236Z,101653.09
2022-11-13T23:56:20.677Z,101647.94
2022-11-13T23:58:48.128Z,101649.78
